sensor_id;sensor_type;location;lat;lon;timestamp;P1;durP1;ratioP1;P2;durP2;ratioP2
71771;SDS011;59606;52.138;5.424;2023-05-07T00:00:14;8.45;;;5.75;;
71771;SDS011;59606;52.138;5.424;2023-05-07T00:02:44;8.25;;;5.80;;
71771;SDS011;59606;52.138;5.424;2023-05-07T00:05:11;13.90;;;7.10;;
71771;SDS011;59606;52.138;5.424;2023-05-07T00:07:39;11.70;;;6.25;;
71771;SDS011;59606;52.138;5.424;2023-05-07T00:10:06;8.73;;;6.15;;
71771;SDS011;59606;52.138;5.424;2023-05-07T00:12:33;8.40;;;5.75;;
71771;SDS011;59606;52.138;5.424;2023-05-07T00:15:01;8.05;;;5.45;;
71771;SDS011;59606;52.138;5.424;2023-05-07T00:17:29;10.83;;;6.20;;
71771;SDS011;59606;52.138;5.424;2023-05-07T00:19:56;8.23;;;5.82;;
71771;SDS011;59606;52.138;5.424;2023-05-07T00:22:22;9.35;;;5.53;;
71771;SDS011;59606;52.138;5.424;2023-05-07T00:24:49;10.65;;;6.07;;
71771;SDS011;59606;52.138;5.424;2023-05-07T00:27:15;10.80;;;5.90;;
71771;SDS011;59606;52.138;5.424;2023-05-07T00:29:42;12.13;;;5.67;;
71771;SDS011;59606;52.138;5.424;2023-05-07T00:32:08;13.68;;;6.20;;
71771;SDS011;59606;52.138;5.424;2023-05-07T00:34:35;11.18;;;6.32;;
71771;SDS011;59606;52.138;5.424;2023-05-07T00:37:02;8.80;;;5.85;;
71771;SDS011;59606;52.138;5.424;2023-05-07T00:39:31;8.93;;;5.68;;
71771;SDS011;59606;52.138;5.424;2023-05-07T00:41:58;7.87;;;5.13;;
71771;SDS011;59606;52.138;5.424;2023-05-07T00:44:24;11.55;;;6.00;;
71771;SDS011;59606;52.138;5.424;2023-05-07T00:46:51;9.77;;;5.88;;
71771;SDS011;59606;52.138;5.424;2023-05-07T00:49:18;9.65;;;5.95;;
71771;SDS011;59606;52.138;5.424;2023-05-07T00:51:45;9.82;;;6.25;;
71771;SDS011;59606;52.138;5.424;2023-05-07T00:54:12;9.83;;;6.13;;
71771;SDS011;59606;52.138;5.424;2023-05-07T00:56:39;11.65;;;6.68;;
71771;SDS011;59606;52.138;5.424;2023-05-07T00:59:06;10.10;;;6.47;;
71771;SDS011;59606;52.138;5.424;2023-05-07T01:01:32;10.23;;;6.75;;
71771;SDS011;59606;52.138;5.424;2023-05-07T01:03:59;10.35;;;6.60;;
71771;SDS011;59606;52.138;5.424;2023-05-07T01:06:26;8.10;;;5.97;;
71771;SDS011;59606;52.138;5.424;2023-05-07T01:08:55;9.55;;;6.43;;
71771;SDS011;59606;52.138;5.424;2023-05-07T01:11:23;9.85;;;5.85;;
71771;SDS011;59606;52.138;5.424;2023-05-07T01:13:51;8.82;;;5.95;;
71771;SDS011;59606;52.138;5.424;2023-05-07T01:16:18;10.25;;;6.22;;
71771;SDS011;59606;52.138;5.424;2023-05-07T01:18:45;9.50;;;6.40;;
71771;SDS011;59606;52.138;5.424;2023-05-07T01:21:14;12.82;;;6.47;;
71771;SDS011;59606;52.138;5.424;2023-05-07T01:23:44;9.93;;;6.75;;
71771;SDS011;59606;52.138;5.424;2023-05-07T01:26:11;9.10;;;6.38;;
71771;SDS011;59606;52.138;5.424;2023-05-07T01:28:37;9.07;;;6.40;;
71771;SDS011;59606;52.138;5.424;2023-05-07T01:31:04;10.47;;;6.60;;
71771;SDS011;59606;52.138;5.424;2023-05-07T01:33:33;10.82;;;5.95;;
71771;SDS011;59606;52.138;5.424;2023-05-07T01:36:02;8.88;;;6.40;;
71771;SDS011;59606;52.138;5.424;2023-05-07T01:38:32;10.05;;;5.80;;
71771;SDS011;59606;52.138;5.424;2023-05-07T01:40:59;9.45;;;6.47;;
71771;SDS011;59606;52.138;5.424;2023-05-07T01:43:26;11.00;;;6.10;;
71771;SDS011;59606;52.138;5.424;2023-05-07T01:45:52;9.55;;;7.05;;
71771;SDS011;59606;52.138;5.424;2023-05-07T01:48:20;8.65;;;5.90;;
71771;SDS011;59606;52.138;5.424;2023-05-07T01:50:47;8.77;;;5.80;;
71771;SDS011;59606;52.138;5.424;2023-05-07T01:53:14;11.57;;;6.53;;
71771;SDS011;59606;52.138;5.424;2023-05-07T01:55:41;10.97;;;6.50;;
71771;SDS011;59606;52.138;5.424;2023-05-07T01:58:07;10.15;;;7.00;;
71771;SDS011;59606;52.138;5.424;2023-05-07T02:00:34;9.05;;;5.95;;
71771;SDS011;59606;52.138;5.424;2023-05-07T02:03:00;9.68;;;5.93;;
71771;SDS011;59606;52.138;5.424;2023-05-07T02:05:27;10.40;;;6.00;;
71771;SDS011;59606;52.138;5.424;2023-05-07T02:07:54;8.30;;;5.93;;
71771;SDS011;59606;52.138;5.424;2023-05-07T02:10:20;8.82;;;6.25;;
71771;SDS011;59606;52.138;5.424;2023-05-07T02:12:47;9.55;;;7.00;;
71771;SDS011;59606;52.138;5.424;2023-05-07T02:15:13;9.68;;;6.10;;
71771;SDS011;59606;52.138;5.424;2023-05-07T02:17:57;11.80;;;6.80;;
71771;SDS011;59606;52.138;5.424;2023-05-07T02:20:32;10.83;;;6.50;;
71771;SDS011;59606;52.138;5.424;2023-05-07T02:22:59;10.38;;;7.50;;
71771;SDS011;59606;52.138;5.424;2023-05-07T02:25:25;10.20;;;6.10;;
71771;SDS011;59606;52.138;5.424;2023-05-07T02:27:52;9.40;;;6.75;;
71771;SDS011;59606;52.138;5.424;2023-05-07T02:30:18;11.95;;;7.25;;
71771;SDS011;59606;52.138;5.424;2023-05-07T02:32:47;10.83;;;6.47;;
71771;SDS011;59606;52.138;5.424;2023-05-07T02:35:14;9.18;;;6.25;;
71771;SDS011;59606;52.138;5.424;2023-05-07T02:37:40;9.75;;;6.22;;
71771;SDS011;59606;52.138;5.424;2023-05-07T02:40:07;10.40;;;6.88;;
71771;SDS011;59606;52.138;5.424;2023-05-07T02:42:34;11.07;;;7.20;;
71771;SDS011;59606;52.138;5.424;2023-05-07T02:45:01;13.87;;;7.40;;
71771;SDS011;59606;52.138;5.424;2023-05-07T02:47:27;9.93;;;7.50;;
71771;SDS011;59606;52.138;5.424;2023-05-07T02:49:55;14.98;;;7.15;;
71771;SDS011;59606;52.138;5.424;2023-05-07T02:52:21;9.95;;;7.03;;
71771;SDS011;59606;52.138;5.424;2023-05-07T02:54:48;10.57;;;6.72;;
71771;SDS011;59606;52.138;5.424;2023-05-07T02:57:15;11.97;;;7.40;;
71771;SDS011;59606;52.138;5.424;2023-05-07T02:59:41;11.48;;;7.15;;
71771;SDS011;59606;52.138;5.424;2023-05-07T03:02:08;11.13;;;7.25;;
71771;SDS011;59606;52.138;5.424;2023-05-07T03:04:36;9.82;;;7.30;;
71771;SDS011;59606;52.138;5.424;2023-05-07T03:07:02;11.85;;;7.00;;
71771;SDS011;59606;52.138;5.424;2023-05-07T03:09:29;13.53;;;7.50;;
71771;SDS011;59606;52.138;5.424;2023-05-07T03:11:56;12.43;;;7.40;;
71771;SDS011;59606;52.138;5.424;2023-05-07T03:14:22;12.25;;;7.75;;
71771;SDS011;59606;52.138;5.424;2023-05-07T03:16:49;10.40;;;7.13;;
71771;SDS011;59606;52.138;5.424;2023-05-07T03:19:16;10.95;;;7.32;;
71771;SDS011;59606;52.138;5.424;2023-05-07T03:21:42;12.80;;;7.77;;
71771;SDS011;59606;52.138;5.424;2023-05-07T03:24:09;13.55;;;7.47;;
71771;SDS011;59606;52.138;5.424;2023-05-07T03:26:35;11.25;;;7.38;;
71771;SDS011;59606;52.138;5.424;2023-05-07T03:29:02;14.02;;;7.25;;
71771;SDS011;59606;52.138;5.424;2023-05-07T03:31:28;10.95;;;6.90;;
71771;SDS011;59606;52.138;5.424;2023-05-07T03:33:56;11.90;;;7.33;;
71771;SDS011;59606;52.138;5.424;2023-05-07T03:36:23;10.32;;;7.22;;
71771;SDS011;59606;52.138;5.424;2023-05-07T03:38:51;11.40;;;7.63;;
71771;SDS011;59606;52.138;5.424;2023-05-07T03:41:17;10.10;;;7.10;;
71771;SDS011;59606;52.138;5.424;2023-05-07T03:43:44;10.27;;;7.20;;
71771;SDS011;59606;52.138;5.424;2023-05-07T03:46:10;11.97;;;7.53;;
71771;SDS011;59606;52.138;5.424;2023-05-07T03:48:37;11.93;;;6.72;;
71771;SDS011;59606;52.138;5.424;2023-05-07T03:51:04;11.13;;;7.45;;
71771;SDS011;59606;52.138;5.424;2023-05-07T03:53:30;11.48;;;8.23;;
71771;SDS011;59606;52.138;5.424;2023-05-07T03:55:57;14.70;;;8.00;;
71771;SDS011;59606;52.138;5.424;2023-05-07T03:58:23;15.07;;;8.07;;
71771;SDS011;59606;52.138;5.424;2023-05-07T04:00:50;11.90;;;8.20;;
71771;SDS011;59606;52.138;5.424;2023-05-07T04:03:16;12.25;;;7.10;;
71771;SDS011;59606;52.138;5.424;2023-05-07T04:05:43;12.57;;;7.72;;
71771;SDS011;59606;52.138;5.424;2023-05-07T04:08:10;11.95;;;7.38;;
71771;SDS011;59606;52.138;5.424;2023-05-07T04:10:36;11.80;;;8.13;;
71771;SDS011;59606;52.138;5.424;2023-05-07T04:13:02;13.88;;;8.02;;
71771;SDS011;59606;52.138;5.424;2023-05-07T04:15:29;11.65;;;8.60;;
71771;SDS011;59606;52.138;5.424;2023-05-07T04:17:55;14.60;;;7.85;;
71771;SDS011;59606;52.138;5.424;2023-05-07T04:20:22;11.77;;;7.82;;
71771;SDS011;59606;52.138;5.424;2023-05-07T04:22:49;13.43;;;8.60;;
71771;SDS011;59606;52.138;5.424;2023-05-07T04:25:15;13.45;;;8.50;;
71771;SDS011;59606;52.138;5.424;2023-05-07T04:27:42;12.27;;;8.15;;
71771;SDS011;59606;52.138;5.424;2023-05-07T04:30:09;13.05;;;8.45;;
71771;SDS011;59606;52.138;5.424;2023-05-07T04:32:36;17.67;;;8.77;;
71771;SDS011;59606;52.138;5.424;2023-05-07T04:35:03;13.57;;;8.43;;
71771;SDS011;59606;52.138;5.424;2023-05-07T04:37:31;14.80;;;9.05;;
71771;SDS011;59606;52.138;5.424;2023-05-07T04:39:58;15.77;;;8.80;;
71771;SDS011;59606;52.138;5.424;2023-05-07T04:42:25;14.68;;;9.45;;
71771;SDS011;59606;52.138;5.424;2023-05-07T04:44:52;12.50;;;8.93;;
71771;SDS011;59606;52.138;5.424;2023-05-07T04:47:20;13.17;;;9.13;;
71771;SDS011;59606;52.138;5.424;2023-05-07T04:49:46;14.30;;;9.07;;
71771;SDS011;59606;52.138;5.424;2023-05-07T04:52:13;15.98;;;10.45;;
71771;SDS011;59606;52.138;5.424;2023-05-07T04:54:39;13.23;;;8.70;;
71771;SDS011;59606;52.138;5.424;2023-05-07T04:57:06;14.65;;;8.77;;
71771;SDS011;59606;52.138;5.424;2023-05-07T04:59:32;15.53;;;9.70;;
71771;SDS011;59606;52.138;5.424;2023-05-07T05:01:59;13.48;;;9.32;;
71771;SDS011;59606;52.138;5.424;2023-05-07T05:04:26;14.15;;;8.90;;
71771;SDS011;59606;52.138;5.424;2023-05-07T05:06:53;12.57;;;8.90;;
71771;SDS011;59606;52.138;5.424;2023-05-07T05:09:19;14.35;;;9.02;;
71771;SDS011;59606;52.138;5.424;2023-05-07T05:11:46;15.90;;;9.37;;
71771;SDS011;59606;52.138;5.424;2023-05-07T05:14:12;15.25;;;9.15;;
71771;SDS011;59606;52.138;5.424;2023-05-07T05:16:39;14.05;;;9.05;;
71771;SDS011;59606;52.138;5.424;2023-05-07T05:19:05;15.45;;;9.18;;
71771;SDS011;59606;52.138;5.424;2023-05-07T05:21:32;13.50;;;9.50;;
71771;SDS011;59606;52.138;5.424;2023-05-07T05:23:58;13.30;;;9.07;;
71771;SDS011;59606;52.138;5.424;2023-05-07T05:26:25;14.38;;;9.13;;
71771;SDS011;59606;52.138;5.424;2023-05-07T05:28:51;19.35;;;10.00;;
71771;SDS011;59606;52.138;5.424;2023-05-07T05:31:18;14.98;;;9.50;;
71771;SDS011;59606;52.138;5.424;2023-05-07T05:33:44;17.00;;;9.25;;
71771;SDS011;59606;52.138;5.424;2023-05-07T05:36:11;17.57;;;9.80;;
71771;SDS011;59606;52.138;5.424;2023-05-07T05:38:39;18.42;;;9.68;;
71771;SDS011;59606;52.138;5.424;2023-05-07T05:41:06;15.73;;;9.27;;
71771;SDS011;59606;52.138;5.424;2023-05-07T05:43:33;15.55;;;10.07;;
71771;SDS011;59606;52.138;5.424;2023-05-07T05:45:59;16.70;;;9.57;;
71771;SDS011;59606;52.138;5.424;2023-05-07T05:48:28;14.03;;;9.93;;
71771;SDS011;59606;52.138;5.424;2023-05-07T05:50:55;15.90;;;9.80;;
71771;SDS011;59606;52.138;5.424;2023-05-07T05:53:21;16.52;;;10.35;;
71771;SDS011;59606;52.138;5.424;2023-05-07T05:55:49;14.55;;;9.23;;
71771;SDS011;59606;52.138;5.424;2023-05-07T05:58:15;15.48;;;9.85;;
71771;SDS011;59606;52.138;5.424;2023-05-07T06:00:42;15.60;;;9.97;;
71771;SDS011;59606;52.138;5.424;2023-05-07T06:03:08;17.50;;;10.05;;
71771;SDS011;59606;52.138;5.424;2023-05-07T06:05:36;16.52;;;10.32;;
71771;SDS011;59606;52.138;5.424;2023-05-07T06:08:03;17.60;;;10.68;;
71771;SDS011;59606;52.138;5.424;2023-05-07T06:10:29;16.00;;;10.40;;
71771;SDS011;59606;52.138;5.424;2023-05-07T06:12:56;17.23;;;10.80;;
71771;SDS011;59606;52.138;5.424;2023-05-07T06:15:23;18.52;;;11.18;;
71771;SDS011;59606;52.138;5.424;2023-05-07T06:17:49;17.45;;;11.30;;
71771;SDS011;59606;52.138;5.424;2023-05-07T06:20:16;16.23;;;11.02;;
71771;SDS011;59606;52.138;5.424;2023-05-07T06:22:42;19.50;;;10.85;;
71771;SDS011;59606;52.138;5.424;2023-05-07T06:25:09;18.10;;;10.93;;
71771;SDS011;59606;52.138;5.424;2023-05-07T06:27:35;18.67;;;11.20;;
71771;SDS011;59606;52.138;5.424;2023-05-07T06:30:02;20.55;;;11.15;;
71771;SDS011;59606;52.138;5.424;2023-05-07T06:32:29;17.42;;;11.73;;
71771;SDS011;59606;52.138;5.424;2023-05-07T06:34:55;17.63;;;11.30;;
71771;SDS011;59606;52.138;5.424;2023-05-07T06:37:21;17.40;;;10.87;;
71771;SDS011;59606;52.138;5.424;2023-05-07T06:39:48;17.13;;;10.68;;
71771;SDS011;59606;52.138;5.424;2023-05-07T06:42:14;20.38;;;12.02;;
71771;SDS011;59606;52.138;5.424;2023-05-07T06:44:41;16.63;;;10.85;;
71771;SDS011;59606;52.138;5.424;2023-05-07T06:47:07;16.85;;;10.70;;
71771;SDS011;59606;52.138;5.424;2023-05-07T06:49:34;17.47;;;12.03;;
71771;SDS011;59606;52.138;5.424;2023-05-07T06:52:00;17.88;;;10.40;;
71771;SDS011;59606;52.138;5.424;2023-05-07T06:54:27;17.58;;;12.10;;
71771;SDS011;59606;52.138;5.424;2023-05-07T06:56:53;19.02;;;12.00;;
71771;SDS011;59606;52.138;5.424;2023-05-07T06:59:20;16.85;;;11.27;;
71771;SDS011;59606;52.138;5.424;2023-05-07T07:01:46;17.83;;;11.23;;
71771;SDS011;59606;52.138;5.424;2023-05-07T07:04:13;17.02;;;11.57;;
71771;SDS011;59606;52.138;5.424;2023-05-07T07:06:39;18.90;;;12.10;;
71771;SDS011;59606;52.138;5.424;2023-05-07T07:09:06;17.20;;;11.50;;
71771;SDS011;59606;52.138;5.424;2023-05-07T07:11:32;16.63;;;11.32;;
71771;SDS011;59606;52.138;5.424;2023-05-07T07:13:59;15.57;;;10.77;;
71771;SDS011;59606;52.138;5.424;2023-05-07T07:16:25;18.17;;;11.50;;
71771;SDS011;59606;52.138;5.424;2023-05-07T07:18:52;23.40;;;10.77;;
71771;SDS011;59606;52.138;5.424;2023-05-07T07:21:18;18.05;;;11.07;;
71771;SDS011;59606;52.138;5.424;2023-05-07T07:23:45;19.33;;;12.60;;
71771;SDS011;59606;52.138;5.424;2023-05-07T07:26:11;17.33;;;11.40;;
71771;SDS011;59606;52.138;5.424;2023-05-07T07:28:47;17.73;;;11.32;;
71771;SDS011;59606;52.138;5.424;2023-05-07T07:31:13;18.65;;;11.55;;
71771;SDS011;59606;52.138;5.424;2023-05-07T07:33:40;18.15;;;11.30;;
71771;SDS011;59606;52.138;5.424;2023-05-07T07:36:07;16.98;;;11.30;;
71771;SDS011;59606;52.138;5.424;2023-05-07T07:38:34;16.57;;;11.50;;
71771;SDS011;59606;52.138;5.424;2023-05-07T07:41:01;15.40;;;11.02;;
71771;SDS011;59606;52.138;5.424;2023-05-07T07:43:27;20.00;;;11.65;;
71771;SDS011;59606;52.138;5.424;2023-05-07T07:45:54;15.85;;;10.88;;
71771;SDS011;59606;52.138;5.424;2023-05-07T07:48:21;15.60;;;11.15;;
71771;SDS011;59606;52.138;5.424;2023-05-07T07:50:50;15.80;;;10.93;;
71771;SDS011;59606;52.138;5.424;2023-05-07T07:53:17;16.83;;;10.98;;
71771;SDS011;59606;52.138;5.424;2023-05-07T07:55:44;16.30;;;11.73;;
71771;SDS011;59606;52.138;5.424;2023-05-07T07:58:11;15.45;;;11.98;;
71771;SDS011;59606;52.138;5.424;2023-05-07T08:00:37;16.05;;;11.02;;
71771;SDS011;59606;52.138;5.424;2023-05-07T08:03:04;17.27;;;10.47;;
71771;SDS011;59606;52.138;5.424;2023-05-07T08:05:31;16.30;;;11.45;;
71771;SDS011;59606;52.138;5.424;2023-05-07T08:07:57;15.05;;;11.18;;
71771;SDS011;59606;52.138;5.424;2023-05-07T08:10:24;18.17;;;11.75;;
71771;SDS011;59606;52.138;5.424;2023-05-07T08:12:51;16.83;;;11.10;;
71771;SDS011;59606;52.138;5.424;2023-05-07T08:15:18;16.40;;;11.03;;
71771;SDS011;59606;52.138;5.424;2023-05-07T08:17:44;17.80;;;10.93;;
71771;SDS011;59606;52.138;5.424;2023-05-07T08:20:11;15.98;;;11.32;;
71771;SDS011;59606;52.138;5.424;2023-05-07T08:22:38;18.55;;;12.15;;
71771;SDS011;59606;52.138;5.424;2023-05-07T08:25:05;17.38;;;12.00;;
71771;SDS011;59606;52.138;5.424;2023-05-07T08:27:31;17.47;;;12.00;;
71771;SDS011;59606;52.138;5.424;2023-05-07T08:29:58;17.08;;;11.68;;
71771;SDS011;59606;52.138;5.424;2023-05-07T08:32:24;20.45;;;12.57;;
71771;SDS011;59606;52.138;5.424;2023-05-07T08:34:51;17.30;;;12.45;;
71771;SDS011;59606;52.138;5.424;2023-05-07T08:37:18;20.60;;;12.98;;
71771;SDS011;59606;52.138;5.424;2023-05-07T08:39:44;17.50;;;12.63;;
71771;SDS011;59606;52.138;5.424;2023-05-07T08:42:11;18.77;;;13.15;;
71771;SDS011;59606;52.138;5.424;2023-05-07T08:44:41;18.58;;;13.90;;
71771;SDS011;59606;52.138;5.424;2023-05-07T08:47:13;19.77;;;12.77;;
71771;SDS011;59606;52.138;5.424;2023-05-07T08:49:39;19.10;;;12.68;;
71771;SDS011;59606;52.138;5.424;2023-05-07T08:52:06;20.07;;;13.60;;
71771;SDS011;59606;52.138;5.424;2023-05-07T08:54:36;20.52;;;13.48;;
71771;SDS011;59606;52.138;5.424;2023-05-07T08:57:03;20.73;;;13.07;;
71771;SDS011;59606;52.138;5.424;2023-05-07T08:59:30;18.05;;;12.88;;
71771;SDS011;59606;52.138;5.424;2023-05-07T09:01:57;20.33;;;13.23;;
71771;SDS011;59606;52.138;5.424;2023-05-07T09:04:23;19.63;;;13.53;;
71771;SDS011;59606;52.138;5.424;2023-05-07T09:06:50;21.42;;;13.02;;
71771;SDS011;59606;52.138;5.424;2023-05-07T09:09:18;20.13;;;12.75;;
71771;SDS011;59606;52.138;5.424;2023-05-07T09:11:47;18.60;;;12.18;;
71771;SDS011;59606;52.138;5.424;2023-05-07T09:14:13;19.23;;;12.90;;
71771;SDS011;59606;52.138;5.424;2023-05-07T09:16:40;21.73;;;14.07;;
71771;SDS011;59606;52.138;5.424;2023-05-07T09:19:07;17.88;;;13.18;;
71771;SDS011;59606;52.138;5.424;2023-05-07T09:21:34;21.33;;;13.85;;
71771;SDS011;59606;52.138;5.424;2023-05-07T09:24:01;20.55;;;13.00;;
71771;SDS011;59606;52.138;5.424;2023-05-07T09:26:28;16.85;;;12.65;;
71771;SDS011;59606;52.138;5.424;2023-05-07T09:28:54;19.83;;;13.70;;
71771;SDS011;59606;52.138;5.424;2023-05-07T09:31:21;19.27;;;12.60;;
71771;SDS011;59606;52.138;5.424;2023-05-07T09:33:49;20.85;;;13.73;;
71771;SDS011;59606;52.138;5.424;2023-05-07T09:36:16;18.63;;;12.88;;
71771;SDS011;59606;52.138;5.424;2023-05-07T09:38:44;18.83;;;12.57;;
71771;SDS011;59606;52.138;5.424;2023-05-07T09:41:12;18.67;;;11.13;;
71771;SDS011;59606;52.138;5.424;2023-05-07T09:43:39;18.73;;;11.45;;
71771;SDS011;59606;52.138;5.424;2023-05-07T09:46:13;17.95;;;12.23;;
71771;SDS011;59606;52.138;5.424;2023-05-07T09:48:42;15.90;;;10.95;;
71771;SDS011;59606;52.138;5.424;2023-05-07T09:51:11;16.42;;;11.32;;
71771;SDS011;59606;52.138;5.424;2023-05-07T09:53:48;18.40;;;11.93;;
71771;SDS011;59606;52.138;5.424;2023-05-07T09:56:16;18.60;;;11.43;;
71771;SDS011;59606;52.138;5.424;2023-05-07T09:58:44;17.77;;;11.77;;
71771;SDS011;59606;52.138;5.424;2023-05-07T10:01:13;18.20;;;12.40;;
71771;SDS011;59606;52.138;5.424;2023-05-07T10:03:40;20.75;;;12.38;;
71771;SDS011;59606;52.138;5.424;2023-05-07T10:06:09;19.90;;;12.67;;
71771;SDS011;59606;52.138;5.424;2023-05-07T10:08:36;17.90;;;11.38;;
71771;SDS011;59606;52.138;5.424;2023-05-07T10:11:04;18.70;;;11.85;;
71771;SDS011;59606;52.138;5.424;2023-05-07T10:13:32;18.38;;;10.73;;
71771;SDS011;59606;52.138;5.424;2023-05-07T10:16:03;18.02;;;11.90;;
71771;SDS011;59606;52.138;5.424;2023-05-07T10:18:31;16.00;;;11.40;;
71771;SDS011;59606;52.138;5.424;2023-05-07T10:21:04;18.25;;;11.98;;
71771;SDS011;59606;52.138;5.424;2023-05-07T10:23:34;17.50;;;11.32;;
71771;SDS011;59606;52.138;5.424;2023-05-07T10:26:03;18.80;;;11.15;;
71771;SDS011;59606;52.138;5.424;2023-05-07T10:28:34;16.83;;;11.32;;
71771;SDS011;59606;52.138;5.424;2023-05-07T10:31:10;17.57;;;11.80;;
71771;SDS011;59606;52.138;5.424;2023-05-07T10:33:49;16.98;;;10.77;;
71771;SDS011;59606;52.138;5.424;2023-05-07T10:36:19;15.70;;;11.35;;
71771;SDS011;59606;52.138;5.424;2023-05-07T10:38:47;16.88;;;12.00;;
71771;SDS011;59606;52.138;5.424;2023-05-07T10:41:13;17.27;;;12.07;;
71771;SDS011;59606;52.138;5.424;2023-05-07T10:43:41;17.63;;;12.57;;
71771;SDS011;59606;52.138;5.424;2023-05-07T10:51:30;18.13;;;11.38;;
71771;SDS011;59606;52.138;5.424;2023-05-07T10:56:42;20.33;;;11.50;;
71771;SDS011;59606;52.138;5.424;2023-05-07T11:01:54;16.33;;;10.73;;
71771;SDS011;59606;52.138;5.424;2023-05-07T11:04:24;19.38;;;11.27;;
71771;SDS011;59606;52.138;5.424;2023-05-07T11:15:05;16.88;;;11.30;;
71771;SDS011;59606;52.138;5.424;2023-05-07T11:17:52;17.50;;;11.70;;
71771;SDS011;59606;52.138;5.424;2023-05-07T11:26:02;18.58;;;12.60;;
71771;SDS011;59606;52.138;5.424;2023-05-07T11:28:36;21.00;;;14.00;;
71771;SDS011;59606;52.138;5.424;2023-05-07T11:31:04;18.98;;;12.90;;
71771;SDS011;59606;52.138;5.424;2023-05-07T11:33:31;19.23;;;12.68;;
71771;SDS011;59606;52.138;5.424;2023-05-07T11:35:59;20.57;;;13.40;;
71771;SDS011;59606;52.138;5.424;2023-05-07T11:38:27;18.52;;;11.80;;
71771;SDS011;59606;52.138;5.424;2023-05-07T11:40:56;19.02;;;13.35;;
71771;SDS011;59606;52.138;5.424;2023-05-07T11:43:24;19.25;;;12.68;;
71771;SDS011;59606;52.138;5.424;2023-05-07T11:45:50;18.90;;;13.68;;
71771;SDS011;59606;52.138;5.424;2023-05-07T11:48:17;20.70;;;12.90;;
71771;SDS011;59606;52.138;5.424;2023-05-07T11:53:44;19.60;;;13.55;;
71771;SDS011;59606;52.138;5.424;2023-05-07T11:56:12;23.75;;;13.63;;
71771;SDS011;59606;52.138;5.424;2023-05-07T11:58:40;16.38;;;12.27;;
71771;SDS011;59606;52.138;5.424;2023-05-07T12:01:08;19.52;;;13.35;;
71771;SDS011;59606;52.138;5.424;2023-05-07T12:03:36;18.73;;;13.27;;
71771;SDS011;59606;52.138;5.424;2023-05-07T12:06:07;19.95;;;13.73;;
71771;SDS011;59606;52.138;5.424;2023-05-07T12:08:35;18.20;;;12.60;;
71771;SDS011;59606;52.138;5.424;2023-05-07T12:11:03;19.10;;;13.23;;
71771;SDS011;59606;52.138;5.424;2023-05-07T12:13:33;17.23;;;12.07;;
71771;SDS011;59606;52.138;5.424;2023-05-07T12:16:00;18.75;;;13.32;;
71771;SDS011;59606;52.138;5.424;2023-05-07T12:18:29;19.23;;;12.85;;
71771;SDS011;59606;52.138;5.424;2023-05-07T12:20:56;19.02;;;13.75;;
71771;SDS011;59606;52.138;5.424;2023-05-07T12:23:25;16.45;;;12.50;;
71771;SDS011;59606;52.138;5.424;2023-05-07T12:25:51;21.08;;;13.10;;
71771;SDS011;59606;52.138;5.424;2023-05-07T12:28:18;18.58;;;13.70;;
71771;SDS011;59606;52.138;5.424;2023-05-07T12:30:46;18.35;;;13.57;;
71771;SDS011;59606;52.138;5.424;2023-05-07T12:33:18;18.23;;;13.32;;
71771;SDS011;59606;52.138;5.424;2023-05-07T12:35:47;18.38;;;11.98;;
71771;SDS011;59606;52.138;5.424;2023-05-07T12:38:14;20.07;;;12.07;;
71771;SDS011;59606;52.138;5.424;2023-05-07T12:40:47;22.17;;;12.20;;
71771;SDS011;59606;52.138;5.424;2023-05-07T12:43:20;17.85;;;12.85;;
71771;SDS011;59606;52.138;5.424;2023-05-07T12:45:50;17.52;;;12.20;;
71771;SDS011;59606;52.138;5.424;2023-05-07T12:48:17;19.70;;;12.43;;
71771;SDS011;59606;52.138;5.424;2023-05-07T12:50:48;15.13;;;10.97;;
71771;SDS011;59606;52.138;5.424;2023-05-07T12:53:22;17.80;;;10.88;;
71771;SDS011;59606;52.138;5.424;2023-05-07T12:55:51;16.38;;;9.93;;
71771;SDS011;59606;52.138;5.424;2023-05-07T13:00:53;12.00;;;7.72;;
71771;SDS011;59606;52.138;5.424;2023-05-07T13:03:26;15.20;;;9.70;;
71771;SDS011;59606;52.138;5.424;2023-05-07T13:05:59;14.98;;;9.52;;
71771;SDS011;59606;52.138;5.424;2023-05-07T13:11:01;13.05;;;9.27;;
71771;SDS011;59606;52.138;5.424;2023-05-07T13:13:30;15.43;;;9.23;;
71771;SDS011;59606;52.138;5.424;2023-05-07T13:15:58;13.95;;;8.77;;
71771;SDS011;59606;52.138;5.424;2023-05-07T13:18:25;14.40;;;8.65;;
71771;SDS011;59606;52.138;5.424;2023-05-07T13:20:53;12.43;;;8.60;;
71771;SDS011;59606;52.138;5.424;2023-05-07T13:23:19;14.60;;;9.85;;
71771;SDS011;59606;52.138;5.424;2023-05-07T13:25:47;16.17;;;9.77;;
71771;SDS011;59606;52.138;5.424;2023-05-07T13:28:14;16.70;;;10.97;;
71771;SDS011;59606;52.138;5.424;2023-05-07T13:30:40;13.43;;;10.27;;
71771;SDS011;59606;52.138;5.424;2023-05-07T13:33:07;15.07;;;10.52;;
71771;SDS011;59606;52.138;5.424;2023-05-07T13:35:35;13.95;;;10.15;;
71771;SDS011;59606;52.138;5.424;2023-05-07T13:38:02;14.00;;;9.82;;
71771;SDS011;59606;52.138;5.424;2023-05-07T13:40:28;15.70;;;10.60;;
71771;SDS011;59606;52.138;5.424;2023-05-07T13:42:56;14.82;;;10.50;;
71771;SDS011;59606;52.138;5.424;2023-05-07T13:45:24;16.77;;;9.70;;
71771;SDS011;59606;52.138;5.424;2023-05-07T13:47:52;13.75;;;9.02;;
71771;SDS011;59606;52.138;5.424;2023-05-07T13:50:18;14.40;;;9.38;;
71771;SDS011;59606;52.138;5.424;2023-05-07T13:52:45;15.98;;;10.15;;
71771;SDS011;59606;52.138;5.424;2023-05-07T13:55:20;16.45;;;10.77;;
71771;SDS011;59606;52.138;5.424;2023-05-07T13:57:47;15.27;;;10.55;;
71771;SDS011;59606;52.138;5.424;2023-05-07T14:00:14;17.60;;;11.15;;
71771;SDS011;59606;52.138;5.424;2023-05-07T14:02:42;15.90;;;10.60;;
71771;SDS011;59606;52.138;5.424;2023-05-07T14:05:09;16.08;;;10.40;;
71771;SDS011;59606;52.138;5.424;2023-05-07T14:07:36;15.60;;;10.25;;
71771;SDS011;59606;52.138;5.424;2023-05-07T14:10:03;15.10;;;9.80;;
71771;SDS011;59606;52.138;5.424;2023-05-07T14:12:30;13.38;;;9.30;;
71771;SDS011;59606;52.138;5.424;2023-05-07T14:14:58;14.80;;;10.40;;
71771;SDS011;59606;52.138;5.424;2023-05-07T14:17:25;16.30;;;10.48;;
71771;SDS011;59606;52.138;5.424;2023-05-07T14:19:53;20.75;;;11.00;;
71771;SDS011;59606;52.138;5.424;2023-05-07T14:22:20;15.30;;;10.18;;
71771;SDS011;59606;52.138;5.424;2023-05-07T14:24:49;15.38;;;10.00;;
71771;SDS011;59606;52.138;5.424;2023-05-07T14:27:31;15.20;;;9.85;;
71771;SDS011;59606;52.138;5.424;2023-05-07T14:29:58;16.00;;;10.40;;
71771;SDS011;59606;52.138;5.424;2023-05-07T14:32:24;15.77;;;10.68;;
71771;SDS011;59606;52.138;5.424;2023-05-07T14:34:51;17.70;;;11.07;;
71771;SDS011;59606;52.138;5.424;2023-05-07T14:37:17;17.38;;;11.15;;
71771;SDS011;59606;52.138;5.424;2023-05-07T14:39:46;18.33;;;11.43;;
71771;SDS011;59606;52.138;5.424;2023-05-07T14:42:15;16.67;;;10.00;;
71771;SDS011;59606;52.138;5.424;2023-05-07T14:44:41;13.93;;;9.73;;
71771;SDS011;59606;52.138;5.424;2023-05-07T14:47:08;12.13;;;8.50;;
71771;SDS011;59606;52.138;5.424;2023-05-07T14:49:35;15.30;;;9.77;;
71771;SDS011;59606;52.138;5.424;2023-05-07T14:52:01;14.60;;;8.90;;
71771;SDS011;59606;52.138;5.424;2023-05-07T14:54:28;13.53;;;8.57;;
71771;SDS011;59606;52.138;5.424;2023-05-07T14:56:54;16.00;;;7.93;;
71771;SDS011;59606;52.138;5.424;2023-05-07T14:59:22;14.70;;;8.85;;
71771;SDS011;59606;52.138;5.424;2023-05-07T15:01:51;15.13;;;8.38;;